createdAt,value
2023-02-26T00:00:21.273Z,95.19
2023-02-26T00:02:49.353Z,95.31
2023-02-26T00:05:18.366Z,95.38
2023-02-26T00:07:46.047Z,93.31
2023-02-26T00:10:15.767Z,93.60
2023-02-26T00:12:44.422Z,94.38
2023-02-26T00:15:14.978Z,95.19
2023-02-26T00:17:50.003Z,94.99
2023-02-26T00:20:20.207Z,95.88
2023-02-26T00:22:48.275Z,96.15
2023-02-26T00:25:15.802Z,95.10
2023-02-26T00:27:48.000Z,96.26
2023-02-26T00:30:20.069Z,95.56
2023-02-26T00:32:48.059Z,94.57
2023-02-26T00:35:17.037Z,94.09
2023-02-26T00:38:06.882Z,95.12
2023-02-26T00:40:42.138Z,95.12
2023-02-26T00:43:14.795Z,94.15
2023-02-26T00:45:48.047Z,93.68
2023-02-26T00:48:34.913Z,94.54
2023-02-26T00:51:11.033Z,95.21
2023-02-26T00:53:48.682Z,94.34
2023-02-26T00:56:16.317Z,94.23
2023-02-26T00:58:44.499Z,94.43
2023-02-26T01:01:12.225Z,94.63
2023-02-26T01:03:40.280Z,94.08
2023-02-26T01:06:12.156Z,94.77
2023-02-26T01:08:48.733Z,92.97
2023-02-26T01:11:16.667Z,93.94
2023-02-26T01:13:44.447Z,93.69
2023-02-26T01:16:18.715Z,94.14
2023-02-26T01:18:51.602Z,93.23
2023-02-26T01:21:25.376Z,92.45
2023-02-26T01:23:54.366Z,92.05
2023-02-26T01:26:26.509Z,92.14
2023-02-26T01:28:55.198Z,92.29
2023-02-26T01:31:35.660Z,92.69
2023-02-26T01:34:09.500Z,92.20
2023-02-26T01:36:43.732Z,91.86
2023-02-26T01:39:20.627Z,91.00
2023-02-26T01:41:51.497Z,91.00
2023-02-26T01:44:27.387Z,90.76
2023-02-26T01:47:11.719Z,91.75
2023-02-26T01:49:39.781Z,91.80
2023-02-26T01:52:08.427Z,91.08
2023-02-26T01:54:39.137Z,91.57
2023-02-26T01:57:11.745Z,91.70
2023-02-26T01:59:43.131Z,92.32
2023-02-26T02:02:12.914Z,90.32
2023-02-26T02:04:42.033Z,90.78
2023-02-26T02:07:09.779Z,90.00
2023-02-26T02:09:38.597Z,89.94
2023-02-26T02:12:20.941Z,89.79
2023-02-26T02:15:03.436Z,89.07
2023-02-26T02:17:39.438Z,90.44
2023-02-26T02:20:37.656Z,90.13
2023-02-26T02:23:15.522Z,90.17
2023-02-26T02:26:16.337Z,89.12
2023-02-26T02:29:02.479Z,89.06
2023-02-26T02:31:36.675Z,89.43
2023-02-26T02:34:08.890Z,89.81
2023-02-26T02:36:42.479Z,90.20
2023-02-26T02:39:13.325Z,88.96
2023-02-26T02:41:47.215Z,89.64
2023-02-26T02:44:19.265Z,89.70
2023-02-26T02:46:52.762Z,88.92
2023-02-26T02:49:25.086Z,88.40
2023-02-26T02:51:56.194Z,89.88
2023-02-26T02:54:27.033Z,90.05
2023-02-26T02:56:57.430Z,89.43
2023-02-26T02:59:30.478Z,88.86
2023-02-26T03:02:06.362Z,88.72
2023-02-26T03:04:33.969Z,86.51
2023-02-26T03:07:01.437Z,88.32
2023-02-26T03:09:28.966Z,88.54
2023-02-26T03:11:56.390Z,89.20
2023-02-26T03:14:24.482Z,89.54
2023-02-26T03:17:10.155Z,88.98
2023-02-26T03:19:45.605Z,89.46
2023-02-26T03:22:18.119Z,89.54
2023-02-26T03:24:50.877Z,90.44
2023-02-26T03:27:24.855Z,90.71
2023-02-26T03:29:57.080Z,90.34
2023-02-26T03:32:30.941Z,90.86
2023-02-26T03:35:05.702Z,90.44
2023-02-26T03:37:37.427Z,90.15
2023-02-26T03:40:10.999Z,90.93
2023-02-26T03:42:43.884Z,90.47
2023-02-26T03:45:14.386Z,91.25
2023-02-26T03:47:48.438Z,91.01
2023-02-26T03:50:18.817Z,90.75
2023-02-26T03:52:49.812Z,90.28
2023-02-26T03:55:23.161Z,90.60
2023-02-26T03:57:50.865Z,90.87
2023-02-26T04:00:19.865Z,91.08
2023-02-26T04:03:00.157Z,89.61
2023-02-26T04:05:30.164Z,89.94
2023-02-26T04:07:58.870Z,91.05
2023-02-26T04:10:30.620Z,91.63
2023-02-26T04:13:00.149Z,91.38
2023-02-26T04:15:27.667Z,91.47
2023-02-26T04:17:56.592Z,90.47
2023-02-26T04:20:24.089Z,90.43
2023-02-26T04:22:51.926Z,91.30
2023-02-26T04:25:19.602Z,90.78
2023-02-26T04:27:47.084Z,90.11
2023-02-26T04:30:14.663Z,90.01
2023-02-26T04:32:42.214Z,89.63
2023-02-26T04:35:11.167Z,89.76
2023-02-26T04:37:38.721Z,89.76
2023-02-26T04:40:07.613Z,90.82
2023-02-26T04:42:35.130Z,89.98
2023-02-26T04:45:02.665Z,89.94
2023-02-26T04:47:30.127Z,88.66
2023-02-26T04:49:57.619Z,89.63
2023-02-26T04:52:26.695Z,89.48
2023-02-26T04:54:54.228Z,88.06
2023-02-26T04:57:22.143Z,88.24
2023-02-26T04:59:49.621Z,87.97
2023-02-26T05:02:17.045Z,87.60
2023-02-26T05:04:44.503Z,88.22
2023-02-26T05:07:11.959Z,87.29
2023-02-26T05:09:40.715Z,87.10
2023-02-26T05:12:08.121Z,87.84
2023-02-26T05:14:35.576Z,87.27
2023-02-26T05:17:03.022Z,86.95
2023-02-26T05:19:30.480Z,86.84
2023-02-26T05:21:57.925Z,86.17
2023-02-26T05:24:25.372Z,86.02
2023-02-26T05:26:54.436Z,86.23
2023-02-26T05:29:21.864Z,86.76
2023-02-26T05:31:49.352Z,86.89
2023-02-26T05:34:16.812Z,86.62
2023-02-26T05:36:44.260Z,85.21
2023-02-26T05:39:11.808Z,85.17
2023-02-26T05:41:39.306Z,85.24
2023-02-26T05:44:09.191Z,84.51
2023-02-26T05:46:36.771Z,85.61
2023-02-26T05:49:04.217Z,85.13
2023-02-26T05:51:31.725Z,84.55
2023-02-26T05:53:59.137Z,85.65
2023-02-26T05:56:26.741Z,84.65
2023-02-26T05:58:54.312Z,84.99
2023-02-26T06:01:23.198Z,84.90
2023-02-26T06:03:50.607Z,83.68
2023-02-26T06:06:18.555Z,83.38
2023-02-26T06:08:46.164Z,81.91
2023-02-26T06:11:13.685Z,82.85
2023-02-26T06:13:41.514Z,83.48
2023-02-26T06:16:09.062Z,83.33
2023-02-26T06:18:37.879Z,84.30
2023-02-26T06:21:06.026Z,84.09
2023-02-26T06:23:33.456Z,83.67
2023-02-26T06:26:00.892Z,82.96
2023-02-26T06:28:28.417Z,82.44
2023-02-26T06:30:56.373Z,83.23
2023-02-26T06:33:24.186Z,83.19
2023-02-26T06:35:53.275Z,83.64
2023-02-26T06:38:20.838Z,82.30
2023-02-26T06:40:48.913Z,81.97
2023-02-26T06:43:16.340Z,82.42
2023-02-26T06:45:43.814Z,83.11
2023-02-26T06:48:11.264Z,83.35
2023-02-26T06:50:39.508Z,82.34
2023-02-26T06:53:08.301Z,80.89
2023-02-26T06:55:36.409Z,81.48
2023-02-26T06:58:03.939Z,81.84
2023-02-26T07:00:31.452Z,81.61
2023-02-26T07:02:59.249Z,82.00
2023-02-26T07:05:26.778Z,81.65
2023-02-26T07:07:54.219Z,80.32
2023-02-26T07:10:24.994Z,80.06
2023-02-26T07:12:52.726Z,79.05
2023-02-26T07:15:20.204Z,81.43
2023-02-26T07:17:47.652Z,81.52
2023-02-26T07:20:15.172Z,81.68
2023-02-26T07:22:42.750Z,79.96
2023-02-26T07:25:11.323Z,80.64
2023-02-26T07:27:43.384Z,80.88
2023-02-26T07:30:14.012Z,81.81
2023-02-26T07:32:41.530Z,81.21
2023-02-26T07:35:09.764Z,81.38
2023-02-26T07:37:37.223Z,82.09
2023-02-26T07:40:05.466Z,82.50
2023-02-26T07:42:32.933Z,80.76
2023-02-26T07:45:02.376Z,81.40
2023-02-26T07:47:30.499Z,81.59
2023-02-26T07:49:58.377Z,81.69
2023-02-26T07:52:26.070Z,82.10
2023-02-26T07:54:53.654Z,81.57
2023-02-26T07:57:21.439Z,81.61
2023-02-26T07:59:48.911Z,81.83
2023-02-26T08:02:17.993Z,81.02
2023-02-26T08:04:45.441Z,80.91
2023-02-26T08:07:12.878Z,81.16
2023-02-26T08:09:40.301Z,80.14
2023-02-26T08:12:07.809Z,79.95
2023-02-26T08:14:35.409Z,79.48
2023-02-26T08:17:02.854Z,79.40
2023-02-26T08:19:32.525Z,79.76
2023-02-26T08:21:59.931Z,79.98
2023-02-26T08:24:27.457Z,80.87
2023-02-26T08:26:55.010Z,80.70
2023-02-26T08:29:22.635Z,79.43
2023-02-26T08:31:50.397Z,78.42
2023-02-26T08:34:18.485Z,79.95
2023-02-26T08:36:47.254Z,80.26
2023-02-26T08:39:14.796Z,79.04
2023-02-26T08:41:42.304Z,80.07
2023-02-26T08:44:10.016Z,80.01
2023-02-26T08:46:38.604Z,79.93
2023-02-26T08:49:06.218Z,80.22
2023-02-26T08:51:33.775Z,79.00
2023-02-26T08:54:02.585Z,77.94
2023-02-26T08:56:30.046Z,78.21
2023-02-26T08:58:57.464Z,78.15
2023-02-26T09:01:25.430Z,78.59
2023-02-26T09:03:53.099Z,77.58
2023-02-26T09:06:20.597Z,77.71
2023-02-26T09:08:49.362Z,78.14
2023-02-26T09:11:18.171Z,78.46
2023-02-26T09:13:45.614Z,77.07
2023-02-26T09:16:13.219Z,76.95
2023-02-26T09:18:40.639Z,88.91
2023-02-26T09:21:08.107Z,82.71
2023-02-26T09:23:35.557Z,71.74
2023-02-26T09:26:03.073Z,74.54
2023-02-26T09:28:31.978Z,76.79
2023-02-26T09:30:59.571Z,77.73
2023-02-26T09:33:27.155Z,74.71
2023-02-26T09:35:54.646Z,76.07
2023-02-26T09:38:22.105Z,75.77
2023-02-26T09:40:52.159Z,76.18
2023-02-26T09:43:50.786Z,75.01
2023-02-26T09:46:31.552Z,75.18
2023-02-26T09:49:08.254Z,75.57
2023-02-26T09:51:36.943Z,74.94
2023-02-26T09:54:14.916Z,74.42
2023-02-26T09:56:42.873Z,73.89
2023-02-26T09:59:12.027Z,73.11
2023-02-26T10:01:46.710Z,73.34
2023-02-26T10:04:26.661Z,72.93
2023-02-26T10:07:08.575Z,72.18
2023-02-26T10:09:51.209Z,71.61
2023-02-26T10:12:21.085Z,70.92
2023-02-26T10:15:01.088Z,71.09
2023-02-26T10:17:34.787Z,71.48
2023-02-26T10:20:07.171Z,70.45
2023-02-26T10:22:38.653Z,71.96
2023-02-26T10:25:13.277Z,70.48
2023-02-26T10:27:54.364Z,70.52
2023-02-26T10:30:31.333Z,70.76
2023-02-26T10:33:07.888Z,68.32
2023-02-26T10:35:43.143Z,67.67
2023-02-26T10:38:14.792Z,67.50
2023-02-26T10:40:45.672Z,67.34
2023-02-26T10:43:19.452Z,67.07
2023-02-26T10:46:00.004Z,68.07
2023-02-26T10:48:42.221Z,66.91
2023-02-26T10:51:15.210Z,65.70
2023-02-26T10:53:47.143Z,66.88
2023-02-26T10:56:19.011Z,65.45
2023-02-26T10:58:47.003Z,65.46
2023-02-26T11:01:19.228Z,64.21
2023-02-26T11:03:51.600Z,62.55
2023-02-26T11:06:22.933Z,62.04
2023-02-26T11:08:54.081Z,62.01
2023-02-26T11:11:40.360Z,62.71
2023-02-26T11:14:08.772Z,62.09
2023-02-26T11:16:43.575Z,62.62
2023-02-26T11:19:15.289Z,62.64
2023-02-26T11:21:46.119Z,63.21
2023-02-26T11:24:19.383Z,64.37
2023-02-26T11:26:49.700Z,65.19
2023-02-26T11:29:20.388Z,66.16
2023-02-26T11:31:52.203Z,66.39
2023-02-26T11:34:23.694Z,65.23
2023-02-26T11:36:53.409Z,63.41
2023-02-26T11:39:24.747Z,63.10
2023-02-26T11:41:56.874Z,63.44
2023-02-26T11:44:35.969Z,63.61
2023-02-26T11:47:07.944Z,62.35
2023-02-26T11:49:35.525Z,60.34
2023-02-26T11:52:17.690Z,60.51
2023-02-26T11:54:47.075Z,62.01
2023-02-26T11:57:18.294Z,61.90
2023-02-26T11:59:50.135Z,63.50
2023-02-26T12:02:21.222Z,64.10
2023-02-26T12:04:50.870Z,65.01
2023-02-26T12:07:19.926Z,65.01
2023-02-26T12:09:48.406Z,64.49
2023-02-26T12:12:35.861Z,63.38
2023-02-26T12:15:18.610Z,61.75
2023-02-26T12:18:04.027Z,61.87
2023-02-26T12:20:38.329Z,60.43
2023-02-26T12:23:31.220Z,60.30
2023-02-26T12:26:13.537Z,59.75
2023-02-26T12:29:07.152Z,59.55
2023-02-26T12:32:02.821Z,61.38
2023-02-26T12:34:55.333Z,61.69
2023-02-26T12:37:36.533Z,62.34
2023-02-26T12:40:20.725Z,61.28
2023-02-26T12:43:00.088Z,62.85
2023-02-26T12:45:42.154Z,63.21
2023-02-26T12:48:37.151Z,63.67
2023-02-26T12:51:14.532Z,63.00
2023-02-26T12:53:54.943Z,61.72
2023-02-26T12:56:49.953Z,59.92
2023-02-26T12:59:35.266Z,58.61
2023-02-26T13:02:29.490Z,57.51
2023-02-26T13:05:30.611Z,57.73
2023-02-26T13:08:13.024Z,60.89
2023-02-26T13:10:55.770Z,60.71
2023-02-26T13:13:38.873Z,61.61
2023-02-26T13:16:18.755Z,62.17
2023-02-26T13:18:54.838Z,62.30
2023-02-26T13:21:27.338Z,62.16
2023-02-26T13:24:00.522Z,61.08
2023-02-26T13:26:30.134Z,58.42
2023-02-26T13:29:01.617Z,58.43
2023-02-26T13:31:33.885Z,59.04
2023-02-26T13:34:10.736Z,57.66
2023-02-26T13:36:39.645Z,58.14
2023-02-26T13:39:29.067Z,56.98
2023-02-26T13:42:02.303Z,56.56
2023-02-26T13:44:38.247Z,55.42
2023-02-26T13:47:25.904Z,56.36
2023-02-26T13:50:05.989Z,55.30
2023-02-26T13:52:36.886Z,56.14
2023-02-26T13:55:06.771Z,55.83
2023-02-26T13:57:48.704Z,56.19
2023-02-26T14:00:28.138Z,55.23
2023-02-26T14:02:57.561Z,55.72
2023-02-26T14:05:53.944Z,56.09
2023-02-26T14:08:46.927Z,56.90
2023-02-26T14:11:44.746Z,56.18
2023-02-26T14:14:24.335Z,56.04
2023-02-26T14:16:56.032Z,55.77
2023-02-26T14:19:34.273Z,55.01
2023-02-26T14:22:15.031Z,54.35
2023-02-26T14:24:51.733Z,54.12
2023-02-26T14:27:33.471Z,55.09
2023-02-26T14:30:06.928Z,55.83
2023-02-26T14:32:36.082Z,56.90
2023-02-26T14:35:11.209Z,56.63
2023-02-26T14:37:41.828Z,57.00
2023-02-26T14:40:16.011Z,56.09
2023-02-26T14:42:49.763Z,56.84
2023-02-26T14:45:30.054Z,58.42
2023-02-26T14:47:59.013Z,58.48
2023-02-26T14:50:30.686Z,58.48
2023-02-26T14:53:24.427Z,58.88
2023-02-26T14:56:07.419Z,58.55
2023-02-26T14:58:49.196Z,59.65
2023-02-26T15:01:31.615Z,57.95
2023-02-26T15:04:15.702Z,59.07
2023-02-26T15:07:00.912Z,58.90
2023-02-26T15:09:38.385Z,57.62
2023-02-26T15:12:17.416Z,57.01
2023-02-26T15:15:00.806Z,57.04
2023-02-26T15:17:40.314Z,55.44
2023-02-26T15:20:19.145Z,55.18
2023-02-26T15:23:04.060Z,54.40
2023-02-26T15:25:35.951Z,55.35
2023-02-26T15:28:05.276Z,53.74
2023-02-26T15:30:35.402Z,55.00
2023-02-26T15:33:06.210Z,55.12
2023-02-26T15:35:34.957Z,55.48
2023-02-26T15:38:04.195Z,55.01
2023-02-26T15:40:34.612Z,55.81
2023-02-26T15:43:03.902Z,55.37
2023-02-26T15:45:37.223Z,56.56
2023-02-26T15:48:07.231Z,56.51
2023-02-26T15:50:38.444Z,57.41
2023-02-26T15:53:08.499Z,56.86
2023-02-26T15:55:39.230Z,57.12
2023-02-26T15:58:08.559Z,57.32
2023-02-26T16:00:39.327Z,58.11
2023-02-26T16:03:06.785Z,58.14
2023-02-26T16:05:34.230Z,59.58
2023-02-26T16:08:01.858Z,59.94
2023-02-26T16:10:35.178Z,60.13
2023-02-26T16:13:03.251Z,59.32
2023-02-26T16:15:33.612Z,59.07
2023-02-26T16:18:06.018Z,60.44
2023-02-26T16:20:38.932Z,60.12
2023-02-26T16:23:10.941Z,59.41
2023-02-26T16:25:41.969Z,60.46
2023-02-26T16:28:15.889Z,61.27
2023-02-26T16:30:45.627Z,60.05
2023-02-26T16:33:17.516Z,60.27
2023-02-26T16:35:48.354Z,60.66
2023-02-26T16:38:21.168Z,61.37
2023-02-26T16:40:58.271Z,61.89
2023-02-26T16:43:53.043Z,61.60
2023-02-26T16:46:34.116Z,62.07
2023-02-26T16:49:05.786Z,60.97
2023-02-26T16:51:38.128Z,61.16
2023-02-26T16:54:10.128Z,62.83
2023-02-26T16:56:41.991Z,62.51
2023-02-26T16:59:16.124Z,62.94
2023-02-26T17:01:51.245Z,62.84
2023-02-26T17:04:22.495Z,63.40
2023-02-26T17:06:50.221Z,63.71
2023-02-26T17:09:34.590Z,63.11
2023-02-26T17:12:13.302Z,64.24
2023-02-26T17:14:42.932Z,64.04
2023-02-26T17:17:11.062Z,64.47
2023-02-26T17:19:39.862Z,64.27
2023-02-26T17:22:14.285Z,63.31
2023-02-26T17:24:45.192Z,63.85
2023-02-26T17:27:17.424Z,63.44
2023-02-26T17:29:47.773Z,64.27
2023-02-26T17:32:19.442Z,62.71
2023-02-26T17:34:48.411Z,63.19
2023-02-26T17:37:16.514Z,63.88
2023-02-26T17:39:44.847Z,62.80
2023-02-26T17:42:13.475Z,64.21
2023-02-26T17:44:41.294Z,63.56
2023-02-26T17:47:13.814Z,64.73
2023-02-26T17:49:41.238Z,65.71
2023-02-26T17:52:09.977Z,65.50
2023-02-26T17:54:37.447Z,66.02
2023-02-26T17:57:05.311Z,66.45
2023-02-26T17:59:33.112Z,65.70
2023-02-26T18:02:01.259Z,65.88
2023-02-26T18:04:29.579Z,66.37
2023-02-26T18:06:57.159Z,66.19
2023-02-26T18:09:25.963Z,66.53
2023-02-26T18:11:53.365Z,66.41
2023-02-26T18:14:20.815Z,67.15
2023-02-26T18:16:48.306Z,67.37
2023-02-26T18:19:16.050Z,66.83
2023-02-26T18:21:43.537Z,67.02
2023-02-26T18:24:11.271Z,66.83
2023-02-26T18:26:40.112Z,66.70
2023-02-26T18:29:07.534Z,66.67
2023-02-26T18:31:35.832Z,67.08
2023-02-26T18:34:04.169Z,66.53
2023-02-26T18:36:37.449Z,66.65
2023-02-26T18:39:07.422Z,66.34
2023-02-26T18:41:35.705Z,66.02
2023-02-26T18:44:04.617Z,64.54
2023-02-26T18:46:34.823Z,66.78
2023-02-26T18:49:02.382Z,66.22
2023-02-26T18:51:30.247Z,63.82
2023-02-26T18:53:57.638Z,65.09
2023-02-26T18:56:25.252Z,66.04
2023-02-26T18:58:52.709Z,65.41
2023-02-26T19:01:21.660Z,65.65
2023-02-26T19:03:49.135Z,66.11
2023-02-26T19:06:16.687Z,65.57
2023-02-26T19:08:44.116Z,65.50
2023-02-26T19:11:11.745Z,65.75
2023-02-26T19:13:39.262Z,64.77
2023-02-26T19:16:07.199Z,65.18
2023-02-26T19:18:35.959Z,64.21
2023-02-26T19:21:04.730Z,64.94
2023-02-26T19:23:32.222Z,64.03
2023-02-26T19:25:59.659Z,64.14
2023-02-26T19:28:27.083Z,65.07
2023-02-26T19:30:55.097Z,64.38
2023-02-26T19:33:23.913Z,64.40
2023-02-26T19:35:53.101Z,63.55
2023-02-26T19:38:20.556Z,63.60
2023-02-26T19:40:48.448Z,63.69
2023-02-26T19:43:15.869Z,64.96
2023-02-26T19:45:43.336Z,65.12
2023-02-26T19:48:10.807Z,64.35
2023-02-26T19:50:38.246Z,64.93
2023-02-26T19:53:07.229Z,65.61
2023-02-26T19:55:34.736Z,66.65
2023-02-26T19:58:02.220Z,66.32
2023-02-26T20:00:29.751Z,66.16
2023-02-26T20:02:57.217Z,65.39
2023-02-26T20:05:24.796Z,66.19
2023-02-26T20:07:52.346Z,66.09
2023-02-26T20:10:23.441Z,67.18
2023-02-26T20:12:50.919Z,65.74
2023-02-26T20:15:18.382Z,66.06
2023-02-26T20:17:45.796Z,65.50
2023-02-26T20:20:13.850Z,65.27
2023-02-26T20:22:41.372Z,64.99
2023-02-26T20:25:09.969Z,64.24
2023-02-26T20:27:38.965Z,65.40
2023-02-26T20:30:07.781Z,66.13
2023-02-26T20:32:35.367Z,66.23
2023-02-26T20:35:02.937Z,66.77
2023-02-26T20:37:30.351Z,65.80
2023-02-26T20:39:57.802Z,65.60
2023-02-26T20:42:25.436Z,66.17
2023-02-26T20:44:54.409Z,66.40
2023-02-26T20:47:21.821Z,65.56
2023-02-26T20:49:49.452Z,66.69
2023-02-26T20:52:16.998Z,66.24
2023-02-26T20:54:44.775Z,67.66
2023-02-26T20:57:13.073Z,67.04
2023-02-26T20:59:40.487Z,67.11
2023-02-26T21:02:12.397Z,67.13
2023-02-26T21:04:39.869Z,66.30
2023-02-26T21:07:21.604Z,65.88
2023-02-26T21:09:49.590Z,65.72
2023-02-26T21:12:17.431Z,64.83
2023-02-26T21:14:45.542Z,65.16
2023-02-26T21:17:14.332Z,67.07
2023-02-26T21:19:41.830Z,67.03
2023-02-26T21:22:09.385Z,67.29
2023-02-26T21:24:36.873Z,66.48
2023-02-26T21:27:04.543Z,66.48
2023-02-26T21:29:32.112Z,67.10
2023-02-26T21:32:03.404Z,68.70
2023-02-26T21:34:34.833Z,68.27
2023-02-26T21:37:03.341Z,67.13
2023-02-26T21:39:32.308Z,67.47
2023-02-26T21:42:00.578Z,67.56
2023-02-26T21:44:28.630Z,67.77
2023-02-26T21:46:57.322Z,66.95
2023-02-26T21:49:24.990Z,66.34
2023-02-26T21:51:54.234Z,66.36
2023-02-26T21:54:21.998Z,66.35
2023-02-26T21:56:49.559Z,65.30
2023-02-26T21:59:16.998Z,65.96
2023-02-26T22:01:45.490Z,68.33
2023-02-26T22:04:13.275Z,67.85
2023-02-26T22:06:40.711Z,66.20
2023-02-26T22:09:09.583Z,65.94
2023-02-26T22:11:37.380Z,65.99
2023-02-26T22:14:04.931Z,66.36
2023-02-26T22:16:32.554Z,66.37
2023-02-26T22:19:00.049Z,66.38
2023-02-26T22:21:27.897Z,66.83
2023-02-26T22:23:55.681Z,66.20
2023-02-26T22:26:24.500Z,66.45
2023-02-26T22:28:52.183Z,66.02
2023-02-26T22:31:19.853Z,66.72
2023-02-26T22:33:49.357Z,66.57
2023-02-26T22:36:17.082Z,66.41
2023-02-26T22:38:44.561Z,66.74
2023-02-26T22:41:12.020Z,67.54
2023-02-26T22:43:40.815Z,67.88
2023-02-26T22:46:08.814Z,67.63
2023-02-26T22:48:36.331Z,68.21
2023-02-26T22:51:03.857Z,68.37
2023-02-26T22:53:31.926Z,67.82
2023-02-26T22:55:59.874Z,68.13
2023-02-26T22:58:27.510Z,67.75
2023-02-26T23:01:01.587Z,67.89
2023-02-26T23:03:29.855Z,69.04
2023-02-26T23:05:58.533Z,68.45
2023-02-26T23:08:26.401Z,68.80
2023-02-26T23:10:55.148Z,68.10
2023-02-26T23:13:22.767Z,70.31
2023-02-26T23:15:50.234Z,69.35
2023-02-26T23:18:19.061Z,69.19
2023-02-26T23:20:48.223Z,68.91
2023-02-26T23:23:16.124Z,69.24
2023-02-26T23:25:43.948Z,69.61
2023-02-26T23:28:11.830Z,69.01
2023-02-26T23:30:39.456Z,69.02
2023-02-26T23:33:08.091Z,69.76
2023-02-26T23:35:37.146Z,70.27
2023-02-26T23:38:06.005Z,70.54
2023-02-26T23:40:34.399Z,70.19
2023-02-26T23:43:01.921Z,71.06
2023-02-26T23:45:29.386Z,72.10
2023-02-26T23:47:56.852Z,71.40
2023-02-26T23:50:24.365Z,71.36
2023-02-26T23:52:53.262Z,71.97
2023-02-26T23:55:24.418Z,70.72
2023-02-26T23:57:51.866Z,71.30
